sensor_id;sensor_type;location;lat;lon;timestamp;P1;durP1;ratioP1;P2;durP2;ratioP2
16115;SDS011;8162;47.104;15.432;2024-01-25T00:01:48;4.63;;;1.20;;
16115;SDS011;8162;47.104;15.432;2024-01-25T00:04:49;1.53;;;0.90;;
16115;SDS011;8162;47.104;15.432;2024-01-25T00:07:50;4.47;;;1.13;;
16115;SDS011;8162;47.104;15.432;2024-01-25T00:10:51;2.07;;;1.03;;
16115;SDS011;8162;47.104;15.432;2024-01-25T00:13:52;3.57;;;1.17;;
16115;SDS011;8162;47.104;15.432;2024-01-25T00:16:53;2.23;;;1.20;;
16115;SDS011;8162;47.104;15.432;2024-01-25T00:19:54;3.43;;;1.30;;
16115;SDS011;8162;47.104;15.432;2024-01-25T00:22:56;2.73;;;1.10;;
16115;SDS011;8162;47.104;15.432;2024-01-25T00:25:57;2.73;;;0.73;;
16115;SDS011;8162;47.104;15.432;2024-01-25T00:28:58;4.00;;;1.10;;
16115;SDS011;8162;47.104;15.432;2024-01-25T00:31:59;1.40;;;0.73;;
16115;SDS011;8162;47.104;15.432;2024-01-25T00:35:00;1.63;;;0.70;;
16115;SDS011;8162;47.104;15.432;2024-01-25T00:38:01;1.23;;;0.60;;
16115;SDS011;8162;47.104;15.432;2024-01-25T00:41:02;2.33;;;0.80;;
16115;SDS011;8162;47.104;15.432;2024-01-25T00:44:04;2.50;;;0.90;;
16115;SDS011;8162;47.104;15.432;2024-01-25T00:47:05;1.30;;;0.73;;
16115;SDS011;8162;47.104;15.432;2024-01-25T00:50:07;1.87;;;0.77;;
16115;SDS011;8162;47.104;15.432;2024-01-25T00:53:08;2.23;;;0.80;;
16115;SDS011;8162;47.104;15.432;2024-01-25T00:56:09;2.00;;;0.70;;
16115;SDS011;8162;47.104;15.432;2024-01-25T00:59:11;1.60;;;0.73;;
16115;SDS011;8162;47.104;15.432;2024-01-25T01:02:12;2.43;;;0.93;;
16115;SDS011;8162;47.104;15.432;2024-01-25T01:05:14;2.43;;;0.93;;
16115;SDS011;8162;47.104;15.432;2024-01-25T01:08:15;2.60;;;0.80;;
16115;SDS011;8162;47.104;15.432;2024-01-25T01:11:16;1.37;;;0.60;;
16115;SDS011;8162;47.104;15.432;2024-01-25T01:14:17;2.27;;;1.00;;
16115;SDS011;8162;47.104;15.432;2024-01-25T01:17:18;1.43;;;0.83;;
16115;SDS011;8162;47.104;15.432;2024-01-25T01:20:19;3.30;;;0.90;;
16115;SDS011;8162;47.104;15.432;2024-01-25T01:23:20;2.30;;;0.90;;
16115;SDS011;8162;47.104;15.432;2024-01-25T01:26:21;1.97;;;0.70;;
16115;SDS011;8162;47.104;15.432;2024-01-25T01:29:22;3.40;;;0.97;;
16115;SDS011;8162;47.104;15.432;2024-01-25T01:32:23;2.47;;;0.63;;
16115;SDS011;8162;47.104;15.432;2024-01-25T01:35:25;2.53;;;0.80;;
16115;SDS011;8162;47.104;15.432;2024-01-25T01:38:26;1.87;;;1.10;;
16115;SDS011;8162;47.104;15.432;2024-01-25T01:41:27;2.30;;;0.90;;
16115;SDS011;8162;47.104;15.432;2024-01-25T01:44:28;0.93;;;0.60;;
16115;SDS011;8162;47.104;15.432;2024-01-25T01:47:29;2.00;;;0.90;;
16115;SDS011;8162;47.104;15.432;2024-01-25T01:50:30;1.23;;;0.80;;
16115;SDS011;8162;47.104;15.432;2024-01-25T01:53:32;1.47;;;0.80;;
16115;SDS011;8162;47.104;15.432;2024-01-25T01:56:33;1.10;;;0.60;;
16115;SDS011;8162;47.104;15.432;2024-01-25T01:59:35;1.30;;;0.83;;
16115;SDS011;8162;47.104;15.432;2024-01-25T02:02:36;2.40;;;0.90;;
16115;SDS011;8162;47.104;15.432;2024-01-25T02:05:37;3.77;;;0.87;;
16115;SDS011;8162;47.104;15.432;2024-01-25T02:08:38;4.60;;;1.03;;
16115;SDS011;8162;47.104;15.432;2024-01-25T02:11:39;1.70;;;0.83;;
16115;SDS011;8162;47.104;15.432;2024-01-25T02:14:40;1.90;;;1.00;;
16115;SDS011;8162;47.104;15.432;2024-01-25T02:17:41;3.30;;;1.13;;
16115;SDS011;8162;47.104;15.432;2024-01-25T02:20:42;6.10;;;1.20;;
16115;SDS011;8162;47.104;15.432;2024-01-25T02:23:43;1.43;;;0.70;;
16115;SDS011;8162;47.104;15.432;2024-01-25T02:26:44;3.17;;;0.83;;
16115;SDS011;8162;47.104;15.432;2024-01-25T02:29:45;2.93;;;0.90;;
16115;SDS011;8162;47.104;15.432;2024-01-25T02:32:46;2.07;;;1.00;;
16115;SDS011;8162;47.104;15.432;2024-01-25T02:35:47;1.80;;;1.03;;
16115;SDS011;8162;47.104;15.432;2024-01-25T02:38:49;3.63;;;0.90;;
16115;SDS011;8162;47.104;15.432;2024-01-25T02:41:50;1.63;;;1.00;;
16115;SDS011;8162;47.104;15.432;2024-01-25T02:44:51;1.67;;;1.10;;
16115;SDS011;8162;47.104;15.432;2024-01-25T02:47:52;4.87;;;1.20;;
16115;SDS011;8162;47.104;15.432;2024-01-25T02:50:53;2.43;;;0.73;;
16115;SDS011;8162;47.104;15.432;2024-01-25T02:53:54;2.40;;;0.90;;
16115;SDS011;8162;47.104;15.432;2024-01-25T02:56:55;3.23;;;1.40;;
16115;SDS011;8162;47.104;15.432;2024-01-25T02:59:56;1.97;;;0.87;;
16115;SDS011;8162;47.104;15.432;2024-01-25T03:02:57;4.07;;;0.83;;
16115;SDS011;8162;47.104;15.432;2024-01-25T03:05:58;1.03;;;0.87;;
16115;SDS011;8162;47.104;15.432;2024-01-25T03:08:59;2.40;;;0.80;;
16115;SDS011;8162;47.104;15.432;2024-01-25T03:12:00;2.67;;;1.20;;
16115;SDS011;8162;47.104;15.432;2024-01-25T03:15:02;1.93;;;0.90;;
16115;SDS011;8162;47.104;15.432;2024-01-25T03:18:03;2.37;;;0.87;;
16115;SDS011;8162;47.104;15.432;2024-01-25T03:21:04;2.53;;;1.00;;
16115;SDS011;8162;47.104;15.432;2024-01-25T03:24:05;1.70;;;0.80;;
16115;SDS011;8162;47.104;15.432;2024-01-25T03:27:06;2.53;;;0.83;;
16115;SDS011;8162;47.104;15.432;2024-01-25T03:30:13;3.73;;;1.33;;
16115;SDS011;8162;47.104;15.432;2024-01-25T03:33:14;2.80;;;0.90;;
16115;SDS011;8162;47.104;15.432;2024-01-25T03:36:15;1.53;;;0.77;;
16115;SDS011;8162;47.104;15.432;2024-01-25T03:39:16;1.77;;;0.80;;
16115;SDS011;8162;47.104;15.432;2024-01-25T03:42:17;2.40;;;0.93;;
16115;SDS011;8162;47.104;15.432;2024-01-25T03:45:18;1.37;;;0.87;;
16115;SDS011;8162;47.104;15.432;2024-01-25T03:48:19;2.77;;;0.67;;
16115;SDS011;8162;47.104;15.432;2024-01-25T03:51:22;2.17;;;0.90;;
16115;SDS011;8162;47.104;15.432;2024-01-25T03:54:24;1.20;;;0.60;;
16115;SDS011;8162;47.104;15.432;2024-01-25T03:57:25;1.20;;;0.60;;
16115;SDS011;8162;47.104;15.432;2024-01-25T04:00:26;2.83;;;0.90;;
16115;SDS011;8162;47.104;15.432;2024-01-25T04:03:27;4.40;;;1.00;;
16115;SDS011;8162;47.104;15.432;2024-01-25T04:06:28;1.90;;;0.83;;
16115;SDS011;8162;47.104;15.432;2024-01-25T04:09:29;1.30;;;0.60;;
16115;SDS011;8162;47.104;15.432;2024-01-25T04:12:30;2.23;;;1.23;;
16115;SDS011;8162;47.104;15.432;2024-01-25T04:15:32;1.27;;;0.90;;
16115;SDS011;8162;47.104;15.432;2024-01-25T04:18:33;1.60;;;0.90;;
16115;SDS011;8162;47.104;15.432;2024-01-25T04:21:36;2.53;;;0.80;;
16115;SDS011;8162;47.104;15.432;2024-01-25T04:24:38;3.17;;;0.93;;
16115;SDS011;8162;47.104;15.432;2024-01-25T04:27:39;1.83;;;0.67;;
16115;SDS011;8162;47.104;15.432;2024-01-25T04:30:41;1.43;;;0.70;;
16115;SDS011;8162;47.104;15.432;2024-01-25T04:33:42;1.30;;;0.60;;
16115;SDS011;8162;47.104;15.432;2024-01-25T04:36:43;3.80;;;0.80;;
16115;SDS011;8162;47.104;15.432;2024-01-25T04:39:44;2.90;;;0.90;;
16115;SDS011;8162;47.104;15.432;2024-01-25T04:42:45;1.40;;;0.73;;
16115;SDS011;8162;47.104;15.432;2024-01-25T04:45:46;3.43;;;0.60;;
16115;SDS011;8162;47.104;15.432;2024-01-25T04:48:47;1.57;;;0.83;;
16115;SDS011;8162;47.104;15.432;2024-01-25T04:51:50;2.80;;;0.87;;
16115;SDS011;8162;47.104;15.432;2024-01-25T04:54:51;1.17;;;0.70;;
16115;SDS011;8162;47.104;15.432;2024-01-25T04:57:52;2.63;;;0.90;;
16115;SDS011;8162;47.104;15.432;2024-01-25T05:00:53;2.63;;;0.80;;
16115;SDS011;8162;47.104;15.432;2024-01-25T05:03:55;2.27;;;0.70;;
16115;SDS011;8162;47.104;15.432;2024-01-25T05:06:56;3.10;;;1.10;;
16115;SDS011;8162;47.104;15.432;2024-01-25T05:09:57;2.83;;;1.20;;
16115;SDS011;8162;47.104;15.432;2024-01-25T05:12:58;3.23;;;0.60;;
16115;SDS011;8162;47.104;15.432;2024-01-25T05:15:59;3.07;;;0.90;;
16115;SDS011;8162;47.104;15.432;2024-01-25T05:19:00;3.47;;;1.20;;
16115;SDS011;8162;47.104;15.432;2024-01-25T05:22:01;3.83;;;1.00;;
16115;SDS011;8162;47.104;15.432;2024-01-25T05:25:06;2.43;;;1.07;;
16115;SDS011;8162;47.104;15.432;2024-01-25T05:28:08;1.70;;;0.90;;
16115;SDS011;8162;47.104;15.432;2024-01-25T05:31:09;3.13;;;0.80;;
16115;SDS011;8162;47.104;15.432;2024-01-25T05:34:12;4.07;;;0.97;;
16115;SDS011;8162;47.104;15.432;2024-01-25T05:37:13;2.00;;;0.90;;
16115;SDS011;8162;47.104;15.432;2024-01-25T05:40:14;3.23;;;1.10;;
16115;SDS011;8162;47.104;15.432;2024-01-25T05:43:15;2.00;;;0.90;;
16115;SDS011;8162;47.104;15.432;2024-01-25T05:46:16;1.47;;;0.93;;
16115;SDS011;8162;47.104;15.432;2024-01-25T05:49:18;2.03;;;0.93;;
16115;SDS011;8162;47.104;15.432;2024-01-25T05:52:19;3.13;;;1.20;;
16115;SDS011;8162;47.104;15.432;2024-01-25T05:55:21;0.60;;;0.60;;
16115;SDS011;8162;47.104;15.432;2024-01-25T05:58:22;2.13;;;1.10;;
16115;SDS011;8162;47.104;15.432;2024-01-25T06:01:23;1.03;;;0.60;;
16115;SDS011;8162;47.104;15.432;2024-01-25T06:04:24;2.43;;;0.67;;
16115;SDS011;8162;47.104;15.432;2024-01-25T06:07:25;2.10;;;0.70;;
16115;SDS011;8162;47.104;15.432;2024-01-25T06:10:26;2.40;;;1.03;;
16115;SDS011;8162;47.104;15.432;2024-01-25T06:13:27;2.40;;;0.93;;
16115;SDS011;8162;47.104;15.432;2024-01-25T06:16:28;1.73;;;0.70;;
16115;SDS011;8162;47.104;15.432;2024-01-25T06:19:28;1.63;;;0.70;;
16115;SDS011;8162;47.104;15.432;2024-01-25T06:22:29;1.60;;;0.70;;
16115;SDS011;8162;47.104;15.432;2024-01-25T06:25:30;2.07;;;0.90;;
16115;SDS011;8162;47.104;15.432;2024-01-25T06:28:30;1.67;;;0.80;;
16115;SDS011;8162;47.104;15.432;2024-01-25T06:31:31;3.73;;;0.80;;
16115;SDS011;8162;47.104;15.432;2024-01-25T06:34:32;1.70;;;0.63;;
16115;SDS011;8162;47.104;15.432;2024-01-25T06:37:32;2.00;;;0.60;;
16115;SDS011;8162;47.104;15.432;2024-01-25T06:40:33;2.27;;;0.70;;
16115;SDS011;8162;47.104;15.432;2024-01-25T06:43:34;3.90;;;1.00;;
16115;SDS011;8162;47.104;15.432;2024-01-25T06:46:35;2.37;;;0.67;;
16115;SDS011;8162;47.104;15.432;2024-01-25T06:49:35;0.80;;;0.70;;
16115;SDS011;8162;47.104;15.432;2024-01-25T06:52:36;1.07;;;0.60;;
16115;SDS011;8162;47.104;15.432;2024-01-25T06:55:37;2.73;;;1.00;;
16115;SDS011;8162;47.104;15.432;2024-01-25T06:58:38;2.27;;;0.70;;
16115;SDS011;8162;47.104;15.432;2024-01-25T07:01:38;2.40;;;1.03;;
16115;SDS011;8162;47.104;15.432;2024-01-25T07:04:39;1.90;;;0.90;;
16115;SDS011;8162;47.104;15.432;2024-01-25T07:07:40;2.10;;;0.70;;
16115;SDS011;8162;47.104;15.432;2024-01-25T07:10:41;1.53;;;0.60;;
16115;SDS011;8162;47.104;15.432;2024-01-25T07:13:42;3.03;;;1.00;;
16115;SDS011;8162;47.104;15.432;2024-01-25T07:16:43;2.30;;;0.70;;
16115;SDS011;8162;47.104;15.432;2024-01-25T07:19:44;1.67;;;0.60;;
16115;SDS011;8162;47.104;15.432;2024-01-25T07:22:44;2.67;;;0.73;;
16115;SDS011;8162;47.104;15.432;2024-01-25T07:25:45;1.63;;;0.80;;
16115;SDS011;8162;47.104;15.432;2024-01-25T07:28:46;2.03;;;0.80;;
16115;SDS011;8162;47.104;15.432;2024-01-25T07:31:46;0.70;;;0.70;;
16115;SDS011;8162;47.104;15.432;2024-01-25T07:34:47;0.87;;;0.60;;
16115;SDS011;8162;47.104;15.432;2024-01-25T07:37:48;0.70;;;0.40;;
16115;SDS011;8162;47.104;15.432;2024-01-25T07:40:48;1.30;;;0.70;;
16115;SDS011;8162;47.104;15.432;2024-01-25T07:43:49;1.67;;;0.50;;
16115;SDS011;8162;47.104;15.432;2024-01-25T07:46:50;1.30;;;0.70;;
16115;SDS011;8162;47.104;15.432;2024-01-25T07:49:51;1.80;;;0.60;;
16115;SDS011;8162;47.104;15.432;2024-01-25T07:52:52;1.27;;;0.40;;
16115;SDS011;8162;47.104;15.432;2024-01-25T07:55:54;0.30;;;0.30;;
16115;SDS011;8162;47.104;15.432;2024-01-25T07:58:55;0.77;;;0.50;;
16115;SDS011;8162;47.104;15.432;2024-01-25T08:01:56;0.77;;;0.43;;
16115;SDS011;8162;47.104;15.432;2024-01-25T08:04:57;1.27;;;0.23;;
16115;SDS011;8162;47.104;15.432;2024-01-25T08:07:58;1.47;;;0.57;;
16115;SDS011;8162;47.104;15.432;2024-01-25T08:10:58;2.93;;;0.60;;
16115;SDS011;8162;47.104;15.432;2024-01-25T08:13:59;0.37;;;0.30;;
16115;SDS011;8162;47.104;15.432;2024-01-25T08:17:00;0.53;;;0.37;;
16115;SDS011;8162;47.104;15.432;2024-01-25T08:20:01;0.23;;;0.20;;
16115;SDS011;8162;47.104;15.432;2024-01-25T08:23:02;1.30;;;0.50;;
16115;SDS011;8162;47.104;15.432;2024-01-25T08:26:03;0.60;;;0.40;;
16115;SDS011;8162;47.104;15.432;2024-01-25T08:29:04;0.90;;;0.53;;
16115;SDS011;8162;47.104;15.432;2024-01-25T08:32:04;1.17;;;0.40;;
16115;SDS011;8162;47.104;15.432;2024-01-25T08:35:05;1.27;;;0.37;;
16115;SDS011;8162;47.104;15.432;2024-01-25T08:38:06;2.83;;;0.40;;
16115;SDS011;8162;47.104;15.432;2024-01-25T08:41:07;2.63;;;0.60;;
16115;SDS011;8162;47.104;15.432;2024-01-25T08:44:08;0.53;;;0.50;;
16115;SDS011;8162;47.104;15.432;2024-01-25T08:47:09;0.50;;;0.33;;
16115;SDS011;8162;47.104;15.432;2024-01-25T08:50:10;0.30;;;0.30;;
16115;SDS011;8162;47.104;15.432;2024-01-25T08:53:14;2.03;;;0.67;;
16115;SDS011;8162;47.104;15.432;2024-01-25T08:56:16;0.57;;;0.37;;
16115;SDS011;8162;47.104;15.432;2024-01-25T08:59:17;2.30;;;0.60;;
16115;SDS011;8162;47.104;15.432;2024-01-25T09:02:17;3.43;;;0.40;;
16115;SDS011;8162;47.104;15.432;2024-01-25T09:05:19;1.80;;;0.43;;
16115;SDS011;8162;47.104;15.432;2024-01-25T09:08:19;1.43;;;0.47;;
16115;SDS011;8162;47.104;15.432;2024-01-25T09:11:20;1.43;;;0.40;;
16115;SDS011;8162;47.104;15.432;2024-01-25T09:14:21;5.47;;;0.90;;
16115;SDS011;8162;47.104;15.432;2024-01-25T09:17:21;1.37;;;0.83;;
16115;SDS011;8162;47.104;15.432;2024-01-25T09:20:22;1.77;;;0.60;;
16115;SDS011;8162;47.104;15.432;2024-01-25T09:23:23;2.97;;;1.00;;
16115;SDS011;8162;47.104;15.432;2024-01-25T09:26:24;2.53;;;1.33;;
16115;SDS011;8162;47.104;15.432;2024-01-25T09:29:24;3.77;;;1.10;;
16115;SDS011;8162;47.104;15.432;2024-01-25T09:32:25;3.87;;;0.80;;
16115;SDS011;8162;47.104;15.432;2024-01-25T09:35:26;2.60;;;0.90;;
16115;SDS011;8162;47.104;15.432;2024-01-25T09:38:27;1.90;;;0.70;;
16115;SDS011;8162;47.104;15.432;2024-01-25T09:41:27;2.23;;;1.00;;
16115;SDS011;8162;47.104;15.432;2024-01-25T09:44:28;1.77;;;1.00;;
16115;SDS011;8162;47.104;15.432;2024-01-25T09:47:29;4.10;;;0.93;;
16115;SDS011;8162;47.104;15.432;2024-01-25T09:50:30;4.03;;;1.03;;
16115;SDS011;8162;47.104;15.432;2024-01-25T09:53:33;2.80;;;1.10;;
16115;SDS011;8162;47.104;15.432;2024-01-25T09:56:35;1.90;;;0.87;;
16115;SDS011;8162;47.104;15.432;2024-01-25T09:59:35;2.07;;;0.80;;
16115;SDS011;8162;47.104;15.432;2024-01-25T10:02:36;3.80;;;1.37;;
16115;SDS011;8162;47.104;15.432;2024-01-25T10:05:37;4.17;;;1.00;;
16115;SDS011;8162;47.104;15.432;2024-01-25T10:08:38;2.83;;;1.00;;
16115;SDS011;8162;47.104;15.432;2024-01-25T10:11:39;4.10;;;1.30;;
16115;SDS011;8162;47.104;15.432;2024-01-25T10:14:40;2.47;;;1.20;;
16115;SDS011;8162;47.104;15.432;2024-01-25T10:17:41;3.30;;;1.27;;
16115;SDS011;8162;47.104;15.432;2024-01-25T10:20:42;3.43;;;1.10;;
16115;SDS011;8162;47.104;15.432;2024-01-25T10:23:46;4.43;;;1.30;;
16115;SDS011;8162;47.104;15.432;2024-01-25T10:26:48;2.67;;;1.10;;
16115;SDS011;8162;47.104;15.432;2024-01-25T10:29:49;4.73;;;1.37;;
16115;SDS011;8162;47.104;15.432;2024-01-25T10:32:51;2.67;;;1.43;;
16115;SDS011;8162;47.104;15.432;2024-01-25T10:35:56;3.13;;;1.30;;
16115;SDS011;8162;47.104;15.432;2024-01-25T10:39:02;3.57;;;1.33;;
16115;SDS011;8162;47.104;15.432;2024-01-25T10:42:05;3.90;;;1.80;;
16115;SDS011;8162;47.104;15.432;2024-01-25T10:45:06;2.50;;;1.10;;
16115;SDS011;8162;47.104;15.432;2024-01-25T10:48:08;7.17;;;1.43;;
16115;SDS011;8162;47.104;15.432;2024-01-25T10:51:09;3.37;;;1.30;;
16115;SDS011;8162;47.104;15.432;2024-01-25T10:54:11;4.07;;;1.30;;
16115;SDS011;8162;47.104;15.432;2024-01-25T10:57:14;4.43;;;1.20;;
16115;SDS011;8162;47.104;15.432;2024-01-25T11:00:15;3.83;;;1.37;;
16115;SDS011;8162;47.104;15.432;2024-01-25T11:03:17;2.30;;;1.10;;
16115;SDS011;8162;47.104;15.432;2024-01-25T11:06:18;2.97;;;1.40;;
16115;SDS011;8162;47.104;15.432;2024-01-25T11:09:21;3.53;;;1.30;;
16115;SDS011;8162;47.104;15.432;2024-01-25T11:12:25;4.23;;;1.23;;
16115;SDS011;8162;47.104;15.432;2024-01-25T11:15:35;2.87;;;1.03;;
16115;SDS011;8162;47.104;15.432;2024-01-25T11:18:46;1.87;;;0.83;;
16115;SDS011;8162;47.104;15.432;2024-01-25T11:21:50;2.27;;;1.27;;
16115;SDS011;8162;47.104;15.432;2024-01-25T11:24:52;4.00;;;1.03;;
16115;SDS011;8162;47.104;15.432;2024-01-25T11:27:54;2.57;;;1.10;;
16115;SDS011;8162;47.104;15.432;2024-01-25T11:30:55;2.20;;;1.17;;
16115;SDS011;8162;47.104;15.432;2024-01-25T11:33:59;1.27;;;0.90;;
16115;SDS011;8162;47.104;15.432;2024-01-25T11:37:01;6.37;;;1.50;;
16115;SDS011;8162;47.104;15.432;2024-01-25T11:40:01;4.20;;;1.30;;
16115;SDS011;8162;47.104;15.432;2024-01-25T11:43:04;3.27;;;1.07;;
16115;SDS011;8162;47.104;15.432;2024-01-25T11:46:10;4.27;;;1.03;;
16115;SDS011;8162;47.104;15.432;2024-01-25T11:49:12;2.37;;;1.10;;
16115;SDS011;8162;47.104;15.432;2024-01-25T11:52:13;4.50;;;0.90;;
16115;SDS011;8162;47.104;15.432;2024-01-25T11:55:15;6.93;;;1.20;;
16115;SDS011;8162;47.104;15.432;2024-01-25T11:58:15;3.03;;;1.40;;
16115;SDS011;8162;47.104;15.432;2024-01-25T12:01:47;2.40;;;0.97;;
16115;SDS011;8162;47.104;15.432;2024-01-25T12:04:48;3.00;;;1.10;;
16115;SDS011;8162;47.104;15.432;2024-01-25T12:07:50;3.87;;;1.10;;
16115;SDS011;8162;47.104;15.432;2024-01-25T12:10:50;2.70;;;1.13;;
16115;SDS011;8162;47.104;15.432;2024-01-25T12:14:01;3.70;;;1.20;;
16115;SDS011;8162;47.104;15.432;2024-01-25T12:17:03;3.70;;;1.10;;
16115;SDS011;8162;47.104;15.432;2024-01-25T12:20:04;3.23;;;1.10;;
16115;SDS011;8162;47.104;15.432;2024-01-25T12:23:10;2.57;;;1.10;;
16115;SDS011;8162;47.104;15.432;2024-01-25T12:26:11;3.03;;;1.27;;
16115;SDS011;8162;47.104;15.432;2024-01-25T12:29:12;3.60;;;1.30;;
16115;SDS011;8162;47.104;15.432;2024-01-25T12:32:13;3.20;;;1.83;;
16115;SDS011;8162;47.104;15.432;2024-01-25T12:35:14;9.33;;;4.40;;
16115;SDS011;8162;47.104;15.432;2024-01-25T12:38:15;6.30;;;3.23;;
16115;SDS011;8162;47.104;15.432;2024-01-25T12:41:15;3.20;;;1.40;;
16115;SDS011;8162;47.104;15.432;2024-01-25T12:44:16;3.93;;;2.73;;
16115;SDS011;8162;47.104;15.432;2024-01-25T12:47:17;4.93;;;2.60;;
16115;SDS011;8162;47.104;15.432;2024-01-25T12:50:18;4.77;;;1.57;;
16115;SDS011;8162;47.104;15.432;2024-01-25T12:53:18;5.20;;;1.60;;
16115;SDS011;8162;47.104;15.432;2024-01-25T12:56:19;4.50;;;1.40;;
16115;SDS011;8162;47.104;15.432;2024-01-25T12:59:20;5.10;;;1.43;;
16115;SDS011;8162;47.104;15.432;2024-01-25T13:02:21;2.87;;;1.20;;
16115;SDS011;8162;47.104;15.432;2024-01-25T13:05:22;5.40;;;1.17;;
16115;SDS011;8162;47.104;15.432;2024-01-25T13:08:23;3.73;;;1.30;;
16115;SDS011;8162;47.104;15.432;2024-01-25T13:11:24;2.50;;;1.30;;
16115;SDS011;8162;47.104;15.432;2024-01-25T13:14:25;3.07;;;1.03;;
16115;SDS011;8162;47.104;15.432;2024-01-25T13:17:25;2.67;;;1.03;;
16115;SDS011;8162;47.104;15.432;2024-01-25T13:20:27;2.20;;;1.00;;
16115;SDS011;8162;47.104;15.432;2024-01-25T13:23:28;3.40;;;1.50;;
16115;SDS011;8162;47.104;15.432;2024-01-25T13:26:29;2.00;;;1.23;;
16115;SDS011;8162;47.104;15.432;2024-01-25T13:29:29;4.27;;;1.10;;
16115;SDS011;8162;47.104;15.432;2024-01-25T13:32:30;5.57;;;1.17;;
16115;SDS011;8162;47.104;15.432;2024-01-25T13:35:31;3.67;;;1.20;;
16115;SDS011;8162;47.104;15.432;2024-01-25T13:38:31;5.43;;;1.50;;
16115;SDS011;8162;47.104;15.432;2024-01-25T13:41:32;4.20;;;1.60;;
16115;SDS011;8162;47.104;15.432;2024-01-25T13:44:33;3.90;;;1.20;;
16115;SDS011;8162;47.104;15.432;2024-01-25T13:47:34;3.80;;;1.40;;
16115;SDS011;8162;47.104;15.432;2024-01-25T13:50:34;2.23;;;0.90;;
16115;SDS011;8162;47.104;15.432;2024-01-25T13:53:35;6.30;;;1.30;;
16115;SDS011;8162;47.104;15.432;2024-01-25T13:56:36;4.77;;;1.40;;
16115;SDS011;8162;47.104;15.432;2024-01-25T13:59:38;4.67;;;1.20;;
16115;SDS011;8162;47.104;15.432;2024-01-25T14:02:39;5.50;;;1.37;;
16115;SDS011;8162;47.104;15.432;2024-01-25T14:05:42;2.57;;;1.10;;
16115;SDS011;8162;47.104;15.432;2024-01-25T14:08:43;2.73;;;1.20;;
16115;SDS011;8162;47.104;15.432;2024-01-25T14:11:44;2.70;;;1.20;;
16115;SDS011;8162;47.104;15.432;2024-01-25T14:14:44;4.97;;;1.23;;
16115;SDS011;8162;47.104;15.432;2024-01-25T14:17:45;3.23;;;1.07;;
16115;SDS011;8162;47.104;15.432;2024-01-25T14:20:46;3.97;;;1.33;;
16115;SDS011;8162;47.104;15.432;2024-01-25T14:23:46;3.73;;;1.37;;
16115;SDS011;8162;47.104;15.432;2024-01-25T14:26:47;3.03;;;1.10;;
16115;SDS011;8162;47.104;15.432;2024-01-25T14:29:48;1.93;;;1.13;;
16115;SDS011;8162;47.104;15.432;2024-01-25T14:32:48;6.37;;;1.20;;
16115;SDS011;8162;47.104;15.432;2024-01-25T14:35:49;2.57;;;0.80;;
16115;SDS011;8162;47.104;15.432;2024-01-25T14:38:50;3.93;;;1.30;;
16115;SDS011;8162;47.104;15.432;2024-01-25T14:41:52;3.23;;;1.30;;
16115;SDS011;8162;47.104;15.432;2024-01-25T14:44:53;4.10;;;1.10;;
16115;SDS011;8162;47.104;15.432;2024-01-25T14:47:54;3.00;;;1.40;;
16115;SDS011;8162;47.104;15.432;2024-01-25T14:50:55;5.00;;;1.40;;
16115;SDS011;8162;47.104;15.432;2024-01-25T14:53:55;2.27;;;0.97;;
16115;SDS011;8162;47.104;15.432;2024-01-25T14:56:56;3.97;;;1.20;;
16115;SDS011;8162;47.104;15.432;2024-01-25T14:59:57;6.90;;;1.40;;
16115;SDS011;8162;47.104;15.432;2024-01-25T15:02:58;3.00;;;1.47;;
16115;SDS011;8162;47.104;15.432;2024-01-25T15:06:00;4.83;;;1.50;;
16115;SDS011;8162;47.104;15.432;2024-01-25T15:09:01;3.47;;;1.17;;
16115;SDS011;8162;47.104;15.432;2024-01-25T15:12:02;1.33;;;1.10;;
16115;SDS011;8162;47.104;15.432;2024-01-25T15:15:03;2.77;;;1.00;;
16115;SDS011;8162;47.104;15.432;2024-01-25T15:18:04;4.13;;;1.40;;
16115;SDS011;8162;47.104;15.432;2024-01-25T15:21:05;4.33;;;1.00;;
16115;SDS011;8162;47.104;15.432;2024-01-25T15:24:06;2.73;;;1.30;;
16115;SDS011;8162;47.104;15.432;2024-01-25T15:27:07;2.80;;;1.00;;
16115;SDS011;8162;47.104;15.432;2024-01-25T15:30:07;3.73;;;1.33;;
16115;SDS011;8162;47.104;15.432;2024-01-25T15:33:09;3.00;;;1.10;;
16115;SDS011;8162;47.104;15.432;2024-01-25T15:36:09;5.60;;;2.57;;
16115;SDS011;8162;47.104;15.432;2024-01-25T15:39:10;6.23;;;3.10;;
16115;SDS011;8162;47.104;15.432;2024-01-25T15:42:11;4.03;;;1.57;;
16115;SDS011;8162;47.104;15.432;2024-01-25T15:45:12;3.73;;;1.27;;
16115;SDS011;8162;47.104;15.432;2024-01-25T15:48:12;3.03;;;1.97;;
16115;SDS011;8162;47.104;15.432;2024-01-25T15:51:13;6.93;;;1.50;;
16115;SDS011;8162;47.104;15.432;2024-01-25T15:54:14;2.80;;;1.50;;
16115;SDS011;8162;47.104;15.432;2024-01-25T15:57:14;3.50;;;1.10;;
16115;SDS011;8162;47.104;15.432;2024-01-25T16:00:15;5.70;;;1.30;;
16115;SDS011;8162;47.104;15.432;2024-01-25T16:03:16;2.97;;;1.20;;
16115;SDS011;8162;47.104;15.432;2024-01-25T16:06:17;3.03;;;1.87;;
16115;SDS011;8162;47.104;15.432;2024-01-25T16:09:18;1.80;;;1.00;;
16115;SDS011;8162;47.104;15.432;2024-01-25T16:12:18;4.00;;;1.07;;
16115;SDS011;8162;47.104;15.432;2024-01-25T16:15:20;3.27;;;1.30;;
16115;SDS011;8162;47.104;15.432;2024-01-25T16:18:21;3.87;;;1.23;;
16115;SDS011;8162;47.104;15.432;2024-01-25T16:21:22;3.83;;;1.57;;
16115;SDS011;8162;47.104;15.432;2024-01-25T16:24:23;1.80;;;1.13;;
16115;SDS011;8162;47.104;15.432;2024-01-25T16:27:24;3.03;;;1.10;;
16115;SDS011;8162;47.104;15.432;2024-01-25T16:30:25;4.17;;;1.10;;
16115;SDS011;8162;47.104;15.432;2024-01-25T16:33:25;1.40;;;1.03;;
16115;SDS011;8162;47.104;15.432;2024-01-25T16:36:26;2.60;;;1.20;;
16115;SDS011;8162;47.104;15.432;2024-01-25T16:39:27;3.63;;;1.50;;
16115;SDS011;8162;47.104;15.432;2024-01-25T16:42:28;2.47;;;1.43;;
16115;SDS011;8162;47.104;15.432;2024-01-25T16:45:29;3.03;;;1.10;;
16115;SDS011;8162;47.104;15.432;2024-01-25T16:48:30;2.43;;;1.13;;
16115;SDS011;8162;47.104;15.432;2024-01-25T16:51:31;3.87;;;1.20;;
16115;SDS011;8162;47.104;15.432;2024-01-25T16:54:33;3.97;;;1.17;;
16115;SDS011;8162;47.104;15.432;2024-01-25T16:57:34;2.23;;;1.57;;
16115;SDS011;8162;47.104;15.432;2024-01-25T17:00:34;2.17;;;1.13;;
16115;SDS011;8162;47.104;15.432;2024-01-25T17:03:35;5.87;;;2.13;;
16115;SDS011;8162;47.104;15.432;2024-01-25T17:06:36;3.03;;;2.13;;
16115;SDS011;8162;47.104;15.432;2024-01-25T17:09:41;5.50;;;3.73;;
16115;SDS011;8162;47.104;15.432;2024-01-25T17:12:43;4.27;;;2.60;;
16115;SDS011;8162;47.104;15.432;2024-01-25T17:15:44;1.77;;;1.60;;
16115;SDS011;8162;47.104;15.432;2024-01-25T17:18:45;4.23;;;1.73;;
16115;SDS011;8162;47.104;15.432;2024-01-25T17:21:45;2.33;;;1.50;;
16115;SDS011;8162;47.104;15.432;2024-01-25T17:24:46;1.83;;;1.30;;
16115;SDS011;8162;47.104;15.432;2024-01-25T17:27:47;2.67;;;1.03;;
16115;SDS011;8162;47.104;15.432;2024-01-25T17:30:47;4.13;;;1.40;;
16115;SDS011;8162;47.104;15.432;2024-01-25T17:33:49;3.27;;;1.60;;
16115;SDS011;8162;47.104;15.432;2024-01-25T17:36:49;2.93;;;1.60;;
16115;SDS011;8162;47.104;15.432;2024-01-25T17:39:50;2.70;;;1.50;;
16115;SDS011;8162;47.104;15.432;2024-01-25T17:42:52;6.53;;;2.00;;
16115;SDS011;8162;47.104;15.432;2024-01-25T17:45:53;2.60;;;1.83;;
16115;SDS011;8162;47.104;15.432;2024-01-25T17:48:54;3.10;;;1.47;;
16115;SDS011;8162;47.104;15.432;2024-01-25T17:51:55;3.17;;;1.30;;
16115;SDS011;8162;47.104;15.432;2024-01-25T17:54:56;2.07;;;1.57;;
16115;SDS011;8162;47.104;15.432;2024-01-25T17:57:57;3.50;;;2.30;;
16115;SDS011;8162;47.104;15.432;2024-01-25T18:00:58;3.03;;;2.10;;
16115;SDS011;8162;47.104;15.432;2024-01-25T18:03:59;5.27;;;2.43;;
16115;SDS011;8162;47.104;15.432;2024-01-25T18:07:00;5.23;;;2.30;;
16115;SDS011;8162;47.104;15.432;2024-01-25T18:10:01;4.50;;;2.20;;
16115;SDS011;8162;47.104;15.432;2024-01-25T18:13:03;3.20;;;1.80;;